sensor_id;sensor_type;location;lat;lon;timestamp;P1;durP1;ratioP1;P2;durP2;ratioP2
57231;SDS011;43488;46.934;8.276;2022-10-16T00:01:42;589.40;;;405.77;;
57231;SDS011;43488;46.934;8.276;2022-10-16T00:04:09;588.60;;;401.80;;
57231;SDS011;43488;46.934;8.276;2022-10-16T00:06:37;598.33;;;322.83;;
57231;SDS011;43488;46.934;8.276;2022-10-16T00:09:05;584.42;;;394.50;;
57231;SDS011;43488;46.934;8.276;2022-10-16T00:11:34;587.75;;;399.00;;
57231;SDS011;43488;46.934;8.276;2022-10-16T00:14:07;587.60;;;311.65;;
57231;SDS011;43488;46.934;8.276;2022-10-16T00:16:40;594.03;;;318.02;;
57231;SDS011;43488;46.934;8.276;2022-10-16T00:19:09;581.42;;;386.98;;
57231;SDS011;43488;46.934;8.276;2022-10-16T00:21:39;588.80;;;403.85;;
57231;SDS011;43488;46.934;8.276;2022-10-16T00:24:07;604.40;;;333.85;;
57231;SDS011;43488;46.934;8.276;2022-10-16T00:26:37;592.08;;;314.55;;
57231;SDS011;43488;46.934;8.276;2022-10-16T00:29:06;587.08;;;309.63;;
57231;SDS011;43488;46.934;8.276;2022-10-16T00:31:34;599.47;;;323.55;;
57231;SDS011;43488;46.934;8.276;2022-10-16T00:34:02;586.42;;;306.05;;
57231;SDS011;43488;46.934;8.276;2022-10-16T00:36:30;583.50;;;391.13;;
57231;SDS011;43488;46.934;8.276;2022-10-16T00:38:58;590.58;;;313.20;;
57231;SDS011;43488;46.934;8.276;2022-10-16T00:41:27;594.83;;;412.85;;
57231;SDS011;43488;46.934;8.276;2022-10-16T00:43:56;580.75;;;390.58;;
57231;SDS011;43488;46.934;8.276;2022-10-16T00:46:39;583.80;;;392.00;;
57231;SDS011;43488;46.934;8.276;2022-10-16T00:51:42;589.83;;;312.48;;
57231;SDS011;43488;46.934;8.276;2022-10-16T00:56:51;589.35;;;399.40;;
57231;SDS011;43488;46.934;8.276;2022-10-16T00:59:44;595.10;;;313.85;;
57231;SDS011;43488;46.934;8.276;2022-10-16T01:02:13;585.83;;;304.17;;
57231;SDS011;43488;46.934;8.276;2022-10-16T01:04:49;586.63;;;401.80;;
57231;SDS011;43488;46.934;8.276;2022-10-16T01:10:14;584.30;;;392.35;;
57231;SDS011;43488;46.934;8.276;2022-10-16T01:13:06;585.33;;;304.52;;
57231;SDS011;43488;46.934;8.276;2022-10-16T01:15:50;588.47;;;305.02;;
57231;SDS011;43488;46.934;8.276;2022-10-16T01:18:32;591.00;;;311.17;;
57231;SDS011;43488;46.934;8.276;2022-10-16T01:21:16;582.75;;;393.63;;
57231;SDS011;43488;46.934;8.276;2022-10-16T01:24:04;582.28;;;390.08;;
57231;SDS011;43488;46.934;8.276;2022-10-16T01:29:48;573.60;;;383.73;;
57231;SDS011;43488;46.934;8.276;2022-10-16T01:34:59;570.80;;;374.13;;
57231;SDS011;43488;46.934;8.276;2022-10-16T01:37:40;575.50;;;387.00;;
57231;SDS011;43488;46.934;8.276;2022-10-16T01:40:16;576.42;;;385.85;;
57231;SDS011;43488;46.934;8.276;2022-10-16T01:42:51;580.47;;;304.20;;
57231;SDS011;43488;46.934;8.276;2022-10-16T01:45:31;590.50;;;311.33;;
57231;SDS011;43488;46.934;8.276;2022-10-16T01:48:01;584.92;;;310.33;;
57231;SDS011;43488;46.934;8.276;2022-10-16T01:50:33;577.17;;;387.17;;
57231;SDS011;43488;46.934;8.276;2022-10-16T01:53:08;576.20;;;385.40;;
57231;SDS011;43488;46.934;8.276;2022-10-16T01:55:40;579.67;;;389.48;;
57231;SDS011;43488;46.934;8.276;2022-10-16T01:58:12;578.67;;;395.65;;
57231;SDS011;43488;46.934;8.276;2022-10-16T02:00:42;588.08;;;312.63;;
57231;SDS011;43488;46.934;8.276;2022-10-16T02:03:12;588.15;;;392.92;;
57231;SDS011;43488;46.934;8.276;2022-10-16T02:05:53;576.42;;;386.88;;
57231;SDS011;43488;46.934;8.276;2022-10-16T02:08:24;589.25;;;307.73;;
57231;SDS011;43488;46.934;8.276;2022-10-16T02:10:55;589.58;;;302.17;;
57231;SDS011;43488;46.934;8.276;2022-10-16T02:13:31;579.67;;;388.30;;
57231;SDS011;43488;46.934;8.276;2022-10-16T02:16:05;589.60;;;312.23;;
57231;SDS011;43488;46.934;8.276;2022-10-16T02:18:34;592.20;;;314.38;;
57231;SDS011;43488;46.934;8.276;2022-10-16T02:30:25;583.63;;;306.52;;
57231;SDS011;43488;46.934;8.276;2022-10-16T02:33:11;591.53;;;309.38;;
57231;SDS011;43488;46.934;8.276;2022-10-16T02:35:40;595.20;;;318.73;;
57231;SDS011;43488;46.934;8.276;2022-10-16T02:38:10;584.55;;;306.70;;
57231;SDS011;43488;46.934;8.276;2022-10-16T02:40:39;573.78;;;381.13;;
57231;SDS011;43488;46.934;8.276;2022-10-16T02:43:07;588.75;;;308.98;;
57231;SDS011;43488;46.934;8.276;2022-10-16T02:45:35;593.10;;;311.88;;
57231;SDS011;43488;46.934;8.276;2022-10-16T02:48:03;585.67;;;303.85;;
57231;SDS011;43488;46.934;8.276;2022-10-16T02:50:30;590.92;;;403.13;;
57231;SDS011;43488;46.934;8.276;2022-10-16T02:52:57;587.30;;;392.38;;
57231;SDS011;43488;46.934;8.276;2022-10-16T02:55:25;587.42;;;393.38;;
57231;SDS011;43488;46.934;8.276;2022-10-16T02:57:54;587.75;;;393.80;;
57231;SDS011;43488;46.934;8.276;2022-10-16T03:00:21;588.25;;;396.63;;
57231;SDS011;43488;46.934;8.276;2022-10-16T03:02:49;594.25;;;305.92;;
57231;SDS011;43488;46.934;8.276;2022-10-16T03:05:17;597.50;;;316.00;;
57231;SDS011;43488;46.934;8.276;2022-10-16T03:07:44;584.92;;;298.80;;
57231;SDS011;43488;46.934;8.276;2022-10-16T03:10:11;585.60;;;395.75;;
57231;SDS011;43488;46.934;8.276;2022-10-16T03:12:39;591.58;;;301.77;;
57231;SDS011;43488;46.934;8.276;2022-10-16T03:15:07;584.92;;;386.73;;
57231;SDS011;43488;46.934;8.276;2022-10-16T03:17:36;585.30;;;386.10;;
57231;SDS011;43488;46.934;8.276;2022-10-16T03:20:04;596.00;;;413.98;;
57231;SDS011;43488;46.934;8.276;2022-10-16T03:22:32;586.38;;;388.10;;
57231;SDS011;43488;46.934;8.276;2022-10-16T03:25:00;592.22;;;396.85;;
57231;SDS011;43488;46.934;8.276;2022-10-16T03:27:27;586.08;;;389.00;;
57231;SDS011;43488;46.934;8.276;2022-10-16T03:29:54;600.65;;;325.23;;
57231;SDS011;43488;46.934;8.276;2022-10-16T03:32:22;591.33;;;309.73;;
57231;SDS011;43488;46.934;8.276;2022-10-16T03:34:51;589.53;;;397.88;;
57231;SDS011;43488;46.934;8.276;2022-10-16T03:37:20;592.53;;;400.90;;
57231;SDS011;43488;46.934;8.276;2022-10-16T03:39:50;596.70;;;314.75;;
57231;SDS011;43488;46.934;8.276;2022-10-16T03:42:17;592.75;;;303.77;;
57231;SDS011;43488;46.934;8.276;2022-10-16T03:44:45;593.85;;;324.52;;
57231;SDS011;43488;46.934;8.276;2022-10-16T03:47:12;594.22;;;405.90;;
57231;SDS011;43488;46.934;8.276;2022-10-16T03:49:40;589.03;;;400.73;;
57231;SDS011;43488;46.934;8.276;2022-10-16T03:52:07;587.35;;;389.45;;
57231;SDS011;43488;46.934;8.276;2022-10-16T03:54:35;584.72;;;382.63;;
57231;SDS011;43488;46.934;8.276;2022-10-16T03:57:02;605.28;;;328.40;;
57231;SDS011;43488;46.934;8.276;2022-10-16T03:59:30;591.70;;;313.40;;
57231;SDS011;43488;46.934;8.276;2022-10-16T04:01:58;595.28;;;318.52;;
57231;SDS011;43488;46.934;8.276;2022-10-16T04:04:26;590.83;;;397.95;;
57231;SDS011;43488;46.934;8.276;2022-10-16T04:06:54;589.80;;;396.63;;
57231;SDS011;43488;46.934;8.276;2022-10-16T04:09:22;598.22;;;320.65;;
57231;SDS011;43488;46.934;8.276;2022-10-16T04:11:49;588.65;;;397.65;;
57231;SDS011;43488;46.934;8.276;2022-10-16T04:14:17;587.97;;;396.95;;
57231;SDS011;43488;46.934;8.276;2022-10-16T04:16:44;590.28;;;311.90;;
57231;SDS011;43488;46.934;8.276;2022-10-16T04:19:12;590.17;;;313.05;;
57231;SDS011;43488;46.934;8.276;2022-10-16T04:21:39;602.78;;;324.50;;
57231;SDS011;43488;46.934;8.276;2022-10-16T04:24:06;586.88;;;390.15;;
57231;SDS011;43488;46.934;8.276;2022-10-16T04:26:34;595.20;;;408.83;;
57231;SDS011;43488;46.934;8.276;2022-10-16T04:29:01;599.50;;;320.92;;
57231;SDS011;43488;46.934;8.276;2022-10-16T04:31:29;601.67;;;323.08;;
57231;SDS011;43488;46.934;8.276;2022-10-16T04:33:56;600.65;;;322.27;;
57231;SDS011;43488;46.934;8.276;2022-10-16T04:36:24;591.92;;;311.88;;
57231;SDS011;43488;46.934;8.276;2022-10-16T04:38:52;596.28;;;314.00;;
57231;SDS011;43488;46.934;8.276;2022-10-16T04:41:19;589.70;;;304.70;;
57231;SDS011;43488;46.934;8.276;2022-10-16T04:43:46;590.50;;;310.70;;
57231;SDS011;43488;46.934;8.276;2022-10-16T04:46:14;599.65;;;326.98;;
57231;SDS011;43488;46.934;8.276;2022-10-16T04:48:41;591.13;;;401.20;;
57231;SDS011;43488;46.934;8.276;2022-10-16T04:51:08;591.45;;;309.80;;
57231;SDS011;43488;46.934;8.276;2022-10-16T04:53:36;586.33;;;391.25;;
57231;SDS011;43488;46.934;8.276;2022-10-16T04:56:04;593.03;;;401.05;;
57231;SDS011;43488;46.934;8.276;2022-10-16T04:58:31;583.22;;;388.13;;
57231;SDS011;43488;46.934;8.276;2022-10-16T05:00:59;591.83;;;398.15;;
57231;SDS011;43488;46.934;8.276;2022-10-16T05:03:27;587.75;;;392.38;;
57231;SDS011;43488;46.934;8.276;2022-10-16T05:05:54;590.80;;;398.17;;
57231;SDS011;43488;46.934;8.276;2022-10-16T05:08:21;594.92;;;409.23;;
57231;SDS011;43488;46.934;8.276;2022-10-16T05:10:48;587.58;;;387.42;;
57231;SDS011;43488;46.934;8.276;2022-10-16T05:13:16;586.80;;;389.58;;
57231;SDS011;43488;46.934;8.276;2022-10-16T05:15:46;594.03;;;319.65;;
57231;SDS011;43488;46.934;8.276;2022-10-16T05:18:15;599.07;;;320.97;;
57231;SDS011;43488;46.934;8.276;2022-10-16T05:20:42;594.78;;;315.95;;
57231;SDS011;43488;46.934;8.276;2022-10-16T05:23:10;585.90;;;383.85;;
57231;SDS011;43488;46.934;8.276;2022-10-16T05:25:38;595.08;;;321.35;;
57231;SDS011;43488;46.934;8.276;2022-10-16T05:28:05;587.03;;;395.42;;
57231;SDS011;43488;46.934;8.276;2022-10-16T05:30:33;591.53;;;310.58;;
57231;SDS011;43488;46.934;8.276;2022-10-16T05:33:00;603.42;;;327.23;;
57231;SDS011;43488;46.934;8.276;2022-10-16T05:35:28;593.00;;;403.35;;
57231;SDS011;43488;46.934;8.276;2022-10-16T05:37:55;599.47;;;322.90;;
57231;SDS011;43488;46.934;8.276;2022-10-16T05:40:22;601.88;;;322.45;;
57231;SDS011;43488;46.934;8.276;2022-10-16T05:42:49;593.05;;;405.67;;
57231;SDS011;43488;46.934;8.276;2022-10-16T05:45:20;590.00;;;397.63;;
57231;SDS011;43488;46.934;8.276;2022-10-16T05:47:48;588.30;;;398.17;;
57231;SDS011;43488;46.934;8.276;2022-10-16T05:50:15;595.88;;;308.60;;
57231;SDS011;43488;46.934;8.276;2022-10-16T05:52:42;595.92;;;316.95;;
57231;SDS011;43488;46.934;8.276;2022-10-16T05:55:09;594.38;;;308.10;;
57231;SDS011;43488;46.934;8.276;2022-10-16T05:57:37;594.40;;;408.52;;
57231;SDS011;43488;46.934;8.276;2022-10-16T06:00:05;592.67;;;395.70;;
57231;SDS011;43488;46.934;8.276;2022-10-16T06:02:33;600.72;;;323.50;;
57231;SDS011;43488;46.934;8.276;2022-10-16T06:05:00;588.95;;;308.42;;
57231;SDS011;43488;46.934;8.276;2022-10-16T06:07:27;584.72;;;386.30;;
57231;SDS011;43488;46.934;8.276;2022-10-16T06:09:54;587.70;;;395.70;;
57231;SDS011;43488;46.934;8.276;2022-10-16T06:12:22;593.45;;;307.58;;
57231;SDS011;43488;46.934;8.276;2022-10-16T06:14:50;593.22;;;406.05;;
57231;SDS011;43488;46.934;8.276;2022-10-16T06:17:17;588.92;;;396.20;;
57231;SDS011;43488;46.934;8.276;2022-10-16T06:19:44;589.85;;;402.05;;
57231;SDS011;43488;46.934;8.276;2022-10-16T06:22:12;587.30;;;308.85;;
57231;SDS011;43488;46.934;8.276;2022-10-16T06:24:39;590.15;;;311.17;;
57231;SDS011;43488;46.934;8.276;2022-10-16T06:27:06;582.15;;;384.58;;
57231;SDS011;43488;46.934;8.276;2022-10-16T06:29:34;586.08;;;389.35;;
57231;SDS011;43488;46.934;8.276;2022-10-16T06:32:01;589.97;;;312.17;;
57231;SDS011;43488;46.934;8.276;2022-10-16T06:34:28;589.10;;;395.10;;
57231;SDS011;43488;46.934;8.276;2022-10-16T06:36:55;582.72;;;385.65;;
57231;SDS011;43488;46.934;8.276;2022-10-16T06:39:23;590.72;;;311.02;;
57231;SDS011;43488;46.934;8.276;2022-10-16T06:41:50;584.55;;;387.85;;
57231;SDS011;43488;46.934;8.276;2022-10-16T06:44:18;589.05;;;309.27;;
57231;SDS011;43488;46.934;8.276;2022-10-16T06:46:45;595.08;;;410.70;;
57231;SDS011;43488;46.934;8.276;2022-10-16T06:49:12;593.00;;;315.92;;
57231;SDS011;43488;46.934;8.276;2022-10-16T06:51:42;588.35;;;306.23;;
57231;SDS011;43488;46.934;8.276;2022-10-16T06:54:09;596.05;;;309.13;;
57231;SDS011;43488;46.934;8.276;2022-10-16T06:56:36;596.08;;;322.77;;
57231;SDS011;43488;46.934;8.276;2022-10-16T06:59:04;587.97;;;386.80;;
57231;SDS011;43488;46.934;8.276;2022-10-16T07:01:31;590.03;;;394.95;;
57231;SDS011;43488;46.934;8.276;2022-10-16T07:04:00;589.90;;;394.60;;
57231;SDS011;43488;46.934;8.276;2022-10-16T07:06:30;595.03;;;325.27;;
57231;SDS011;43488;46.934;8.276;2022-10-16T07:09:00;594.30;;;397.95;;
57231;SDS011;43488;46.934;8.276;2022-10-16T07:11:31;600.33;;;324.97;;
57231;SDS011;43488;46.934;8.276;2022-10-16T07:13:59;589.97;;;392.88;;
57231;SDS011;43488;46.934;8.276;2022-10-16T07:16:28;590.15;;;398.90;;
57231;SDS011;43488;46.934;8.276;2022-10-16T07:18:58;597.25;;;310.88;;
57231;SDS011;43488;46.934;8.276;2022-10-16T07:21:28;594.88;;;408.63;;
57231;SDS011;43488;46.934;8.276;2022-10-16T07:24:01;602.47;;;419.35;;
57231;SDS011;43488;46.934;8.276;2022-10-16T07:26:32;600.83;;;328.38;;
57231;SDS011;43488;46.934;8.276;2022-10-16T07:29:02;599.88;;;399.90;;
57231;SDS011;43488;46.934;8.276;2022-10-16T07:31:29;599.70;;;416.65;;
57231;SDS011;43488;46.934;8.276;2022-10-16T07:33:58;606.00;;;329.02;;
57231;SDS011;43488;46.934;8.276;2022-10-16T07:36:27;599.05;;;323.65;;
57231;SDS011;43488;46.934;8.276;2022-10-16T07:38:55;599.15;;;322.33;;
57231;SDS011;43488;46.934;8.276;2022-10-16T07:41:23;607.55;;;335.00;;
57231;SDS011;43488;46.934;8.276;2022-10-16T07:43:51;596.95;;;406.13;;
57231;SDS011;43488;46.934;8.276;2022-10-16T07:46:20;600.40;;;324.30;;
57231;SDS011;43488;46.934;8.276;2022-10-16T07:48:49;601.00;;;398.40;;
57231;SDS011;43488;46.934;8.276;2022-10-16T07:51:18;598.65;;;411.60;;
57231;SDS011;43488;46.934;8.276;2022-10-16T07:53:49;602.83;;;325.23;;
57231;SDS011;43488;46.934;8.276;2022-10-16T07:56:18;606.55;;;337.02;;
57231;SDS011;43488;46.934;8.276;2022-10-16T07:58:46;593.30;;;378.92;;
57231;SDS011;43488;46.934;8.276;2022-10-16T08:01:14;606.30;;;324.02;;
57231;SDS011;43488;46.934;8.276;2022-10-16T08:03:43;602.58;;;395.17;;
57231;SDS011;43488;46.934;8.276;2022-10-16T08:06:13;602.15;;;420.50;;
57231;SDS011;43488;46.934;8.276;2022-10-16T08:08:41;604.92;;;319.10;;
57231;SDS011;43488;46.934;8.276;2022-10-16T08:11:09;604.47;;;419.13;;
57231;SDS011;43488;46.934;8.276;2022-10-16T08:13:36;611.55;;;337.50;;
57231;SDS011;43488;46.934;8.276;2022-10-16T08:16:04;598.17;;;410.55;;
57231;SDS011;43488;46.934;8.276;2022-10-16T08:18:35;606.20;;;326.13;;
57231;SDS011;43488;46.934;8.276;2022-10-16T08:21:15;611.72;;;420.20;;
57231;SDS011;43488;46.934;8.276;2022-10-16T08:23:44;612.13;;;335.63;;
57231;SDS011;43488;46.934;8.276;2022-10-16T08:26:12;599.15;;;413.52;;
57231;SDS011;43488;46.934;8.276;2022-10-16T08:28:39;608.55;;;424.67;;
57231;SDS011;43488;46.934;8.276;2022-10-16T08:31:11;603.28;;;401.20;;
57231;SDS011;43488;46.934;8.276;2022-10-16T08:33:40;608.40;;;332.20;;
57231;SDS011;43488;46.934;8.276;2022-10-16T08:36:10;611.58;;;333.17;;
57231;SDS011;43488;46.934;8.276;2022-10-16T08:38:38;603.50;;;410.40;;
57231;SDS011;43488;46.934;8.276;2022-10-16T08:41:17;610.88;;;341.33;;
57231;SDS011;43488;46.934;8.276;2022-10-16T08:44:30;605.95;;;398.23;;
57231;SDS011;43488;46.934;8.276;2022-10-16T08:47:24;613.97;;;338.83;;
57231;SDS011;43488;46.934;8.276;2022-10-16T08:50:09;606.33;;;403.00;;
57231;SDS011;43488;46.934;8.276;2022-10-16T08:52:41;607.00;;;402.35;;
57231;SDS011;43488;46.934;8.276;2022-10-16T08:55:16;616.67;;;342.33;;
57231;SDS011;43488;46.934;8.276;2022-10-16T08:57:57;607.92;;;409.98;;
57231;SDS011;43488;46.934;8.276;2022-10-16T09:00:25;605.15;;;396.80;;
57231;SDS011;43488;46.934;8.276;2022-10-16T09:05:54;604.70;;;405.00;;
57231;SDS011;43488;46.934;8.276;2022-10-16T09:08:28;613.75;;;353.65;;
57231;SDS011;43488;46.934;8.276;2022-10-16T09:20:28;605.05;;;409.10;;
57231;SDS011;43488;46.934;8.276;2022-10-16T09:23:16;602.95;;;405.65;;
57231;SDS011;43488;46.934;8.276;2022-10-16T09:25:57;608.53;;;340.65;;
57231;SDS011;43488;46.934;8.276;2022-10-16T09:28:26;598.75;;;402.55;;
57231;SDS011;43488;46.934;8.276;2022-10-16T09:30:53;607.90;;;344.85;;
57231;SDS011;43488;46.934;8.276;2022-10-16T09:33:22;601.33;;;405.63;;
57231;SDS011;43488;46.934;8.276;2022-10-16T09:35:56;602.60;;;411.23;;
57231;SDS011;43488;46.934;8.276;2022-10-16T09:38:29;612.78;;;345.13;;
57231;SDS011;43488;46.934;8.276;2022-10-16T09:41:03;613.60;;;348.73;;
57231;SDS011;43488;46.934;8.276;2022-10-16T09:46:25;601.28;;;332.92;;
57231;SDS011;43488;46.934;8.276;2022-10-16T09:49:03;578.40;;;367.15;;
57231;SDS011;43488;46.934;8.276;2022-10-16T09:52:02;600.85;;;306.27;;
57231;SDS011;43488;46.934;8.276;2022-10-16T09:54:55;604.70;;;321.67;;
57231;SDS011;43488;46.934;8.276;2022-10-16T09:57:25;601.17;;;320.77;;
57231;SDS011;43488;46.934;8.276;2022-10-16T09:59:57;588.35;;;388.10;;
57231;SDS011;43488;46.934;8.276;2022-10-16T10:02:35;602.58;;;325.23;;
57231;SDS011;43488;46.934;8.276;2022-10-16T10:05:05;611.95;;;337.50;;
57231;SDS011;43488;46.934;8.276;2022-10-16T10:07:43;610.42;;;336.63;;
57231;SDS011;43488;46.934;8.276;2022-10-16T10:12:49;593.78;;;391.00;;
57231;SDS011;43488;46.934;8.276;2022-10-16T10:15:17;609.08;;;336.02;;
57231;SDS011;43488;46.934;8.276;2022-10-16T10:17:50;611.08;;;295.30;;
57231;SDS011;43488;46.934;8.276;2022-10-16T10:20:30;609.13;;;299.23;;
57231;SDS011;43488;46.934;8.276;2022-10-16T10:23:01;589.83;;;363.95;;
57231;SDS011;43488;46.934;8.276;2022-10-16T10:31:29;602.13;;;376.02;;
57231;SDS011;43488;46.934;8.276;2022-10-16T10:40:22;602.00;;;395.88;;
57231;SDS011;43488;46.934;8.276;2022-10-16T10:46:14;617.03;;;330.00;;
57231;SDS011;43488;46.934;8.276;2022-10-16T10:49:10;606.78;;;391.45;;
57231;SDS011;43488;46.934;8.276;2022-10-16T10:51:51;630.40;;;347.70;;
57231;SDS011;43488;46.934;8.276;2022-10-16T11:00:58;629.97;;;363.50;;
57231;SDS011;43488;46.934;8.276;2022-10-16T11:09:23;622.42;;;402.73;;
57231;SDS011;43488;46.934;8.276;2022-10-16T11:12:11;636.17;;;339.40;;
57231;SDS011;43488;46.934;8.276;2022-10-16T11:17:29;622.00;;;377.40;;
57231;SDS011;43488;46.934;8.276;2022-10-16T11:20:27;622.80;;;378.70;;
57231;SDS011;43488;46.934;8.276;2022-10-16T11:23:11;638.70;;;327.27;;
57231;SDS011;43488;46.934;8.276;2022-10-16T11:26:11;630.88;;;323.60;;
57231;SDS011;43488;46.934;8.276;2022-10-16T11:28:51;612.97;;;388.95;;
57231;SDS011;43488;46.934;8.276;2022-10-16T11:31:28;636.85;;;330.95;;
57231;SDS011;43488;46.934;8.276;2022-10-16T11:34:08;627.03;;;388.10;;
57231;SDS011;43488;46.934;8.276;2022-10-16T11:39:44;616.50;;;385.80;;
57231;SDS011;43488;46.934;8.276;2022-10-16T11:42:14;625.75;;;395.05;;
57231;SDS011;43488;46.934;8.276;2022-10-16T11:48:17;641.65;;;360.88;;
57231;SDS011;43488;46.934;8.276;2022-10-16T11:54:08;636.22;;;364.75;;
57231;SDS011;43488;46.934;8.276;2022-10-16T11:56:52;622.58;;;427.55;;
57231;SDS011;43488;46.934;8.276;2022-10-16T11:59:27;620.28;;;423.67;;
57231;SDS011;43488;46.934;8.276;2022-10-16T12:10:40;622.42;;;422.20;;
57231;SDS011;43488;46.934;8.276;2022-10-16T12:13:28;625.95;;;429.77;;
57231;SDS011;43488;46.934;8.276;2022-10-16T12:19:02;620.20;;;406.52;;
57231;SDS011;43488;46.934;8.276;2022-10-16T12:21:38;623.85;;;412.00;;
57231;SDS011;43488;46.934;8.276;2022-10-16T12:24:05;631.47;;;344.55;;
57231;SDS011;43488;46.934;8.276;2022-10-16T12:26:46;631.63;;;413.55;;
57231;SDS011;43488;46.934;8.276;2022-10-16T12:31:54;643.70;;;379.02;;
57231;SDS011;43488;46.934;8.276;2022-10-16T12:34:25;643.63;;;359.02;;
57231;SDS011;43488;46.934;8.276;2022-10-16T12:37:10;648.50;;;406.60;;
57231;SDS011;43488;46.934;8.276;2022-10-16T12:39:50;641.58;;;434.83;;
57231;SDS011;43488;46.934;8.276;2022-10-16T12:44:54;646.53;;;388.10;;
57231;SDS011;43488;46.934;8.276;2022-10-16T12:49:58;654.30;;;373.05;;
57231;SDS011;43488;46.934;8.276;2022-10-16T12:52:27;636.20;;;432.05;;
57231;SDS011;43488;46.934;8.276;2022-10-16T12:55:04;633.65;;;453.52;;
57231;SDS011;43488;46.934;8.276;2022-10-16T12:58:00;645.55;;;425.67;;
57231;SDS011;43488;46.934;8.276;2022-10-16T13:04:10;633.80;;;459.17;;
57231;SDS011;43488;46.934;8.276;2022-10-16T13:15:29;652.47;;;538.83;;
57231;SDS011;43488;46.934;8.276;2022-10-16T13:24:43;710.88;;;635.15;;
57231;SDS011;43488;46.934;8.276;2022-10-16T13:30:23;690.83;;;616.22;;
57231;SDS011;43488;46.934;8.276;2022-10-16T13:33:06;743.67;;;666.97;;
57231;SDS011;43488;46.934;8.276;2022-10-16T13:35:58;717.90;;;644.87;;
57231;SDS011;43488;46.934;8.276;2022-10-16T13:38:43;715.72;;;642.97;;
57231;SDS011;43488;46.934;8.276;2022-10-16T13:41:15;733.22;;;657.92;;
57231;SDS011;43488;46.934;8.276;2022-10-16T13:43:45;745.83;;;670.17;;
57231;SDS011;43488;46.934;8.276;2022-10-16T13:46:19;727.00;;;654.13;;
57231;SDS011;43488;46.934;8.276;2022-10-16T13:48:58;756.55;;;680.97;;
57231;SDS011;43488;46.934;8.276;2022-10-16T13:51:31;721.22;;;649.13;;
57231;SDS011;43488;46.934;8.276;2022-10-16T13:53:59;736.80;;;664.38;;
57231;SDS011;43488;46.934;8.276;2022-10-16T13:56:30;722.40;;;650.70;;
57231;SDS011;43488;46.934;8.276;2022-10-16T13:59:00;763.97;;;688.85;;
57231;SDS011;43488;46.934;8.276;2022-10-16T14:01:42;763.50;;;688.75;;
57231;SDS011;43488;46.934;8.276;2022-10-16T14:04:11;767.63;;;692.47;;
57231;SDS011;43488;46.934;8.276;2022-10-16T14:06:41;754.57;;;680.07;;
57231;SDS011;43488;46.934;8.276;2022-10-16T14:09:21;751.97;;;677.67;;
57231;SDS011;43488;46.934;8.276;2022-10-16T14:12:07;711.00;;;639.20;;
57231;SDS011;43488;46.934;8.276;2022-10-16T14:14:42;719.22;;;647.55;;
57231;SDS011;43488;46.934;8.276;2022-10-16T14:17:23;719.72;;;646.05;;
57231;SDS011;43488;46.934;8.276;2022-10-16T14:19:55;714.85;;;642.83;;
57231;SDS011;43488;46.934;8.276;2022-10-16T14:22:32;708.45;;;635.85;;
57231;SDS011;43488;46.934;8.276;2022-10-16T14:30:54;698.60;;;625.88;;
57231;SDS011;43488;46.934;8.276;2022-10-16T14:38:41;685.22;;;611.10;;
57231;SDS011;43488;46.934;8.276;2022-10-16T14:41:15;689.83;;;617.13;;
57231;SDS011;43488;46.934;8.276;2022-10-16T14:43:50;713.88;;;638.70;;
57231;SDS011;43488;46.934;8.276;2022-10-16T14:46:31;700.92;;;625.72;;
57231;SDS011;43488;46.934;8.276;2022-10-16T14:51:38;675.17;;;599.17;;
57231;SDS011;43488;46.934;8.276;2022-10-16T14:54:12;671.90;;;580.00;;
57231;SDS011;43488;46.934;8.276;2022-10-16T14:56:46;674.13;;;583.80;;
57231;SDS011;43488;46.934;8.276;2022-10-16T14:59:27;666.33;;;552.97;;
57231;SDS011;43488;46.934;8.276;2022-10-16T15:02:09;649.53;;;559.28;;
57231;SDS011;43488;46.934;8.276;2022-10-16T15:04:43;653.55;;;558.35;;
57231;SDS011;43488;46.934;8.276;2022-10-16T15:07:10;664.80;;;536.17;;
57231;SDS011;43488;46.934;8.276;2022-10-16T15:09:38;668.00;;;534.17;;
57231;SDS011;43488;46.934;8.276;2022-10-16T15:12:07;649.85;;;542.45;;
57231;SDS011;43488;46.934;8.276;2022-10-16T15:14:34;646.38;;;528.63;;
57231;SDS011;43488;46.934;8.276;2022-10-16T15:17:02;650.30;;;545.35;;
57231;SDS011;43488;46.934;8.276;2022-10-16T15:19:30;665.55;;;532.17;;
57231;SDS011;43488;46.934;8.276;2022-10-16T15:21:57;666.53;;;537.30;;
57231;SDS011;43488;46.934;8.276;2022-10-16T15:24:25;664.10;;;535.42;;
57231;SDS011;43488;46.934;8.276;2022-10-16T15:26:52;651.08;;;557.78;;
57231;SDS011;43488;46.934;8.276;2022-10-16T15:29:20;645.55;;;557.97;;
57231;SDS011;43488;46.934;8.276;2022-10-16T15:31:47;648.53;;;545.85;;
57231;SDS011;43488;46.934;8.276;2022-10-16T15:34:15;661.47;;;520.13;;
57231;SDS011;43488;46.934;8.276;2022-10-16T15:36:44;646.67;;;517.13;;
57231;SDS011;43488;46.934;8.276;2022-10-16T15:39:13;652.92;;;470.58;;
57231;SDS011;43488;46.934;8.276;2022-10-16T15:41:47;653.25;;;452.00;;
57231;SDS011;43488;46.934;8.276;2022-10-16T15:44:20;648.97;;;432.10;;
57231;SDS011;43488;46.934;8.276;2022-10-16T15:46:55;634.25;;;473.80;;
57231;SDS011;43488;46.934;8.276;2022-10-16T15:49:23;645.10;;;428.00;;
57231;SDS011;43488;46.934;8.276;2022-10-16T15:51:50;651.17;;;433.20;;
57231;SDS011;43488;46.934;8.276;2022-10-16T15:54:19;643.13;;;471.38;;
57231;SDS011;43488;46.934;8.276;2022-10-16T15:56:49;649.20;;;435.15;;
57231;SDS011;43488;46.934;8.276;2022-10-16T15:59:16;641.45;;;453.77;;
57231;SDS011;43488;46.934;8.276;2022-10-16T16:01:44;639.50;;;448.23;;
57231;SDS011;43488;46.934;8.276;2022-10-16T16:04:11;643.67;;;457.30;;
57231;SDS011;43488;46.934;8.276;2022-10-16T16:06:38;647.13;;;470.05;;
57231;SDS011;43488;46.934;8.276;2022-10-16T16:09:11;642.75;;;446.85;;
57231;SDS011;43488;46.934;8.276;2022-10-16T16:11:40;667.42;;;410.20;;
57231;SDS011;43488;46.934;8.276;2022-10-16T16:14:10;664.05;;;414.35;;
57231;SDS011;43488;46.934;8.276;2022-10-16T16:16:41;667.35;;;403.15;;
57231;SDS011;43488;46.934;8.276;2022-10-16T16:19:09;666.15;;;400.23;;
57231;SDS011;43488;46.934;8.276;2022-10-16T16:21:36;666.08;;;445.95;;
57231;SDS011;43488;46.934;8.276;2022-10-16T16:24:04;663.83;;;445.52;;
57231;SDS011;43488;46.934;8.276;2022-10-16T16:26:35;663.05;;;390.40;;
57231;SDS011;43488;46.934;8.276;2022-10-16T16:29:05;662.72;;;385.13;;
57231;SDS011;43488;46.934;8.276;2022-10-16T16:31:33;688.25;;;454.05;;
57231;SDS011;43488;46.934;8.276;2022-10-16T16:34:02;680.67;;;378.48;;
57231;SDS011;43488;46.934;8.276;2022-10-16T16:36:29;704.10;;;447.85;;
57231;SDS011;43488;46.934;8.276;2022-10-16T16:38:57;696.72;;;377.13;;